sensor_id;sensor_type;location;lat;lon;timestamp;pressure;altitude;pressure_sealevel;temperature;humidity
61014;BME280;46899;47.542;19.082;2022-10-30T00:00:49;101274.69;;;12.46;100.00
61014;BME280;46899;47.542;19.082;2022-10-30T00:03:52;101275.62;;;12.43;100.00
61014;BME280;46899;47.542;19.082;2022-10-30T00:06:54;101276.56;;;12.41;100.00
61014;BME280;46899;47.542;19.082;2022-10-30T00:09:56;101273.91;;;12.42;100.00
61014;BME280;46899;47.542;19.082;2022-10-30T00:12:58;101268.53;;;12.48;100.00
61014;BME280;46899;47.542;19.082;2022-10-30T00:16:02;101273.75;;;12.48;100.00
61014;BME280;46899;47.542;19.082;2022-10-30T00:19:05;101271.06;;;12.50;100.00
61014;BME280;46899;47.542;19.082;2022-10-30T00:22:08;101260.63;;;12.50;100.00
61014;BME280;46899;47.542;19.082;2022-10-30T00:25:10;101263.25;;;12.50;100.00
61014;BME280;46899;47.542;19.082;2022-10-30T00:28:12;101266.12;;;12.41;100.00
61014;BME280;46899;47.542;19.082;2022-10-30T00:31:15;101272.28;;;12.38;100.00
61014;BME280;46899;47.542;19.082;2022-10-30T00:34:18;101270.41;;;12.43;100.00
61014;BME280;46899;47.542;19.082;2022-10-30T00:37:20;101263.38;;;12.45;100.00
61014;BME280;46899;47.542;19.082;2022-10-30T00:40:23;101259.25;;;12.36;100.00
61014;BME280;46899;47.542;19.082;2022-10-30T00:43:26;101255.84;;;12.34;100.00
61014;BME280;46899;47.542;19.082;2022-10-30T00:46:33;101260.22;;;12.34;100.00
61014;BME280;46899;47.542;19.082;2022-10-30T00:49:37;101261.06;;;12.34;100.00
61014;BME280;46899;47.542;19.082;2022-10-30T00:52:49;101264.47;;;12.36;100.00
61014;BME280;46899;47.542;19.082;2022-10-30T00:55:54;101262.69;;;12.39;100.00
61014;BME280;46899;47.542;19.082;2022-10-30T00:58:58;101265.31;;;12.39;100.00
61014;BME280;46899;47.542;19.082;2022-10-30T01:02:02;101254.03;;;12.36;100.00
61014;BME280;46899;47.542;19.082;2022-10-30T01:05:06;101248.72;;;12.41;100.00
61014;BME280;46899;47.542;19.082;2022-10-30T01:08:10;101234.88;;;12.37;100.00
61014;BME280;46899;47.542;19.082;2022-10-30T01:11:13;101237.53;;;12.36;100.00
61014;BME280;46899;47.542;19.082;2022-10-30T01:14:17;101235.06;;;12.31;100.00
61014;BME280;46899;47.542;19.082;2022-10-30T01:20:50;101228.12;;;12.30;100.00
61014;BME280;46899;47.542;19.082;2022-10-30T01:24:04;101225.44;;;12.32;100.00
61014;BME280;46899;47.542;19.082;2022-10-30T01:27:22;101222.09;;;12.28;100.00
61014;BME280;46899;47.542;19.082;2022-10-30T01:30:36;101221.09;;;12.32;100.00
61014;BME280;46899;47.542;19.082;2022-10-30T01:33:51;101214.41;;;12.24;100.00
61014;BME280;46899;47.542;19.082;2022-10-30T01:40:09;101217.03;;;12.22;100.00
61014;BME280;46899;47.542;19.082;2022-10-30T01:43:12;101216.75;;;12.33;100.00
61014;BME280;46899;47.542;19.082;2022-10-30T02:02:06;101235.12;;;12.28;100.00
61014;BME280;46899;47.542;19.082;2022-10-30T02:05:10;101231.38;;;12.39;100.00
61014;BME280;46899;47.542;19.082;2022-10-30T02:08:14;101216.59;;;12.37;100.00
61014;BME280;46899;47.542;19.082;2022-10-30T02:11:17;101219.28;;;12.34;100.00
61014;BME280;46899;47.542;19.082;2022-10-30T02:14:27;101229.00;;;12.29;100.00
61014;BME280;46899;47.542;19.082;2022-10-30T02:17:31;101225.59;;;12.27;100.00
61014;BME280;46899;47.542;19.082;2022-10-30T02:20:33;101224.84;;;12.22;100.00
61014;BME280;46899;47.542;19.082;2022-10-30T02:23:36;101226.50;;;12.26;100.00
61014;BME280;46899;47.542;19.082;2022-10-30T02:26:39;101227.44;;;12.24;100.00
61014;BME280;46899;47.542;19.082;2022-10-30T02:29:42;101224.97;;;12.18;100.00
61014;BME280;46899;47.542;19.082;2022-10-30T02:32:44;101212.97;;;12.12;100.00
61014;BME280;46899;47.542;19.082;2022-10-30T02:35:47;101214.59;;;12.16;100.00
61014;BME280;46899;47.542;19.082;2022-10-30T02:38:49;101212.78;;;12.18;100.00
61014;BME280;46899;47.542;19.082;2022-10-30T02:41:51;101205.19;;;12.11;100.00
61014;BME280;46899;47.542;19.082;2022-10-30T02:44:54;101207.03;;;12.07;100.00
61014;BME280;46899;47.542;19.082;2022-10-30T02:47:58;101214.00;;;12.07;100.00
61014;BME280;46899;47.542;19.082;2022-10-30T02:51:02;101213.88;;;12.11;100.00
61014;BME280;46899;47.542;19.082;2022-10-30T02:54:05;101218.16;;;12.14;100.00
61014;BME280;46899;47.542;19.082;2022-10-30T02:57:08;101206.69;;;12.19;100.00
61014;BME280;46899;47.542;19.082;2022-10-30T03:00:12;101218.19;;;12.12;100.00
61014;BME280;46899;47.542;19.082;2022-10-30T03:03:15;101222.50;;;12.13;100.00
61014;BME280;46899;47.542;19.082;2022-10-30T03:06:22;101221.34;;;12.23;100.00
61014;BME280;46899;47.542;19.082;2022-10-30T03:09:25;101220.41;;;12.26;100.00
61014;BME280;46899;47.542;19.082;2022-10-30T03:12:27;101212.53;;;12.27;100.00
61014;BME280;46899;47.542;19.082;2022-10-30T03:15:30;101214.47;;;12.21;100.00
61014;BME280;46899;47.542;19.082;2022-10-30T03:18:32;101221.44;;;12.20;100.00
61014;BME280;46899;47.542;19.082;2022-10-30T03:21:36;101226.84;;;12.14;100.00
61014;BME280;46899;47.542;19.082;2022-10-30T03:24:39;101222.50;;;12.13;100.00
61014;BME280;46899;47.542;19.082;2022-10-30T03:27:41;101225.09;;;12.13;100.00
61014;BME280;46899;47.542;19.082;2022-10-30T03:30:44;101229.50;;;12.13;100.00
61014;BME280;46899;47.542;19.082;2022-10-30T03:33:47;101224.97;;;12.18;100.00
61014;BME280;46899;47.542;19.082;2022-10-30T03:36:49;101218.75;;;12.23;100.00
61014;BME280;46899;47.542;19.082;2022-10-30T03:39:52;101223.16;;;12.21;100.00
61014;BME280;46899;47.542;19.082;2022-10-30T03:42:55;101218.28;;;12.09;100.00
61014;BME280;46899;47.542;19.082;2022-10-30T03:45:58;101216.31;;;12.17;100.00
61014;BME280;46899;47.542;19.082;2022-10-30T03:49:01;101218.00;;;12.18;100.00
61014;BME280;46899;47.542;19.082;2022-10-30T03:52:03;101209.13;;;12.25;100.00
61014;BME280;46899;47.542;19.082;2022-10-30T03:55:06;101207.75;;;12.12;100.00
61014;BME280;46899;47.542;19.082;2022-10-30T03:58:11;101207.84;;;12.09;100.00
61014;BME280;46899;47.542;19.082;2022-10-30T04:01:13;101211.25;;;12.11;100.00
61014;BME280;46899;47.542;19.082;2022-10-30T04:04:16;101216.66;;;12.05;100.00
61014;BME280;46899;47.542;19.082;2022-10-30T04:07:19;101213.06;;;12.09;100.00
61014;BME280;46899;47.542;19.082;2022-10-30T04:10:22;101204.41;;;12.07;100.00
61014;BME280;46899;47.542;19.082;2022-10-30T04:13:25;101200.81;;;12.11;100.00
61014;BME280;46899;47.542;19.082;2022-10-30T04:16:27;101207.91;;;12.06;100.00
61014;BME280;46899;47.542;19.082;2022-10-30T04:19:30;101200.59;;;11.88;100.00
61014;BME280;46899;47.542;19.082;2022-10-30T04:22:33;101201.34;;;11.93;100.00
61014;BME280;46899;47.542;19.082;2022-10-30T04:25:35;101206.37;;;11.99;100.00
61014;BME280;46899;47.542;19.082;2022-10-30T04:28:38;101197.59;;;12.03;100.00
61014;BME280;46899;47.542;19.082;2022-10-30T04:31:40;101203.63;;;12.04;100.00
61014;BME280;46899;47.542;19.082;2022-10-30T04:34:43;101196.19;;;11.90;100.00
61014;BME280;46899;47.542;19.082;2022-10-30T04:40:57;101203.19;;;11.88;100.00
61014;BME280;46899;47.542;19.082;2022-10-30T04:44:02;101209.97;;;11.95;100.00
61014;BME280;46899;47.542;19.082;2022-10-30T04:47:05;101209.28;;;11.89;100.00
61014;BME280;46899;47.542;19.082;2022-10-30T04:50:07;101206.69;;;11.87;100.00
61014;BME280;46899;47.542;19.082;2022-10-30T04:53:14;101214.62;;;11.83;100.00
61014;BME280;46899;47.542;19.082;2022-10-30T04:56:16;101217.06;;;11.90;100.00
61014;BME280;46899;47.542;19.082;2022-10-30T04:59:19;101216.66;;;12.05;100.00
61014;BME280;46899;47.542;19.082;2022-10-30T05:02:21;101208.62;;;12.13;100.00
61014;BME280;46899;47.542;19.082;2022-10-30T05:05:24;101201.75;;;12.09;100.00
61014;BME280;46899;47.542;19.082;2022-10-30T05:08:27;101207.28;;;11.98;100.00
61014;BME280;46899;47.542;19.082;2022-10-30T05:11:30;101204.50;;;12.04;100.00
61014;BME280;46899;47.542;19.082;2022-10-30T05:14:32;101214.81;;;12.09;100.00
61014;BME280;46899;47.542;19.082;2022-10-30T05:17:35;101221.66;;;12.13;100.00
61014;BME280;46899;47.542;19.082;2022-10-30T05:20:38;101230.25;;;12.16;100.00
61014;BME280;46899;47.542;19.082;2022-10-30T05:23:40;101230.66;;;12.01;100.00
61014;BME280;46899;47.542;19.082;2022-10-30T05:26:44;101222.75;;;12.04;100.00
61014;BME280;46899;47.542;19.082;2022-10-30T05:29:47;101225.66;;;11.94;100.00
61014;BME280;46899;47.542;19.082;2022-10-30T05:32:49;101227.41;;;11.93;100.00
61014;BME280;46899;47.542;19.082;2022-10-30T05:35:52;101227.41;;;11.93;100.00
61014;BME280;46899;47.542;19.082;2022-10-30T05:38:55;101222.12;;;11.96;100.00
61014;BME280;46899;47.542;19.082;2022-10-30T05:41:58;101226.28;;;12.03;100.00
61014;BME280;46899;47.542;19.082;2022-10-30T05:45:02;101223.81;;;11.97;100.00
61014;BME280;46899;47.542;19.082;2022-10-30T05:48:05;101228.22;;;11.95;100.00
61014;BME280;46899;47.542;19.082;2022-10-30T05:51:08;101234.31;;;11.96;100.00
61014;BME280;46899;47.542;19.082;2022-10-30T05:54:12;101225.62;;;11.95;100.00
61014;BME280;46899;47.542;19.082;2022-10-30T05:57:15;101231.50;;;12.03;100.00
61014;BME280;46899;47.542;19.082;2022-10-30T06:00:18;101228.62;;;12.12;100.00
61014;BME280;46899;47.542;19.082;2022-10-30T06:03:21;101237.94;;;12.21;100.00
61014;BME280;46899;47.542;19.082;2022-10-30T06:06:24;101241.62;;;12.14;100.00
61014;BME280;46899;47.542;19.082;2022-10-30T06:09:27;101240.63;;;12.19;100.00
61014;BME280;46899;47.542;19.082;2022-10-30T06:12:30;101226.66;;;12.20;100.00
61014;BME280;46899;47.542;19.082;2022-10-30T06:15:32;101230.72;;;12.30;100.00
61014;BME280;46899;47.542;19.082;2022-10-30T06:18:35;101225.97;;;12.45;100.00
61014;BME280;46899;47.542;19.082;2022-10-30T06:21:38;101223.78;;;12.29;100.00
61014;BME280;46899;47.542;19.082;2022-10-30T06:24:42;101233.66;;;12.20;100.00
61014;BME280;46899;47.542;19.082;2022-10-30T06:27:45;101226.56;;;12.23;100.00
61014;BME280;46899;47.542;19.082;2022-10-30T06:30:47;101237.81;;;12.27;100.00
61014;BME280;46899;47.542;19.082;2022-10-30T06:33:51;101233.25;;;12.33;100.00
61014;BME280;46899;47.542;19.082;2022-10-30T06:36:53;101247.88;;;12.39;100.00
61014;BME280;46899;47.542;19.082;2022-10-30T06:39:57;101244.97;;;12.50;100.00
61014;BME280;46899;47.542;19.082;2022-10-30T06:43:00;101254.34;;;12.57;100.00
61014;BME280;46899;47.542;19.082;2022-10-30T06:46:03;101255.09;;;12.60;100.00
61014;BME280;46899;47.542;19.082;2022-10-30T06:49:09;101264.78;;;12.57;100.00
61014;BME280;46899;47.542;19.082;2022-10-30T06:52:12;101253.63;;;12.52;100.00
61014;BME280;46899;47.542;19.082;2022-10-30T06:55:15;101257.97;;;12.51;100.00
61014;BME280;46899;47.542;19.082;2022-10-30T06:58:17;101251.09;;;12.49;100.00
61014;BME280;46899;47.542;19.082;2022-10-30T07:01:20;101257.84;;;12.56;100.00
61014;BME280;46899;47.542;19.082;2022-10-30T07:04:25;101255.22;;;12.56;100.00
61014;BME280;46899;47.542;19.082;2022-10-30T07:07:29;101249.72;;;12.65;100.00
61014;BME280;46899;47.542;19.082;2022-10-30T07:10:32;101253.06;;;12.70;100.00
61014;BME280;46899;47.542;19.082;2022-10-30T07:13:35;101251.28;;;12.72;100.00
61014;BME280;46899;47.542;19.082;2022-10-30T07:16:38;101249.44;;;12.75;100.00
61014;BME280;46899;47.542;19.082;2022-10-30T07:19:40;101249.16;;;12.84;100.00
61014;BME280;46899;47.542;19.082;2022-10-30T07:22:43;101253.50;;;12.85;100.00
61014;BME280;46899;47.542;19.082;2022-10-30T07:25:45;101243.28;;;12.78;100.00
61014;BME280;46899;47.542;19.082;2022-10-30T07:28:49;101245.75;;;12.82;100.00
61014;BME280;46899;47.542;19.082;2022-10-30T07:31:52;101254.53;;;12.80;100.00
61014;BME280;46899;47.542;19.082;2022-10-30T07:35:08;101254.09;;;12.95;100.00
61014;BME280;46899;47.542;19.082;2022-10-30T07:38:14;101259.19;;;12.98;100.00
61014;BME280;46899;47.542;19.082;2022-10-30T07:41:21;101257.28;;;13.03;100.00
61014;BME280;46899;47.542;19.082;2022-10-30T07:44:23;101258.00;;;13.10;100.00
61014;BME280;46899;47.542;19.082;2022-10-30T07:47:26;101270.94;;;13.14;100.00
61014;BME280;46899;47.542;19.082;2022-10-30T07:50:30;101267.63;;;13.09;100.00
61014;BME280;46899;47.542;19.082;2022-10-30T07:53:33;101272.09;;;13.04;100.00
61014;BME280;46899;47.542;19.082;2022-10-30T07:56:37;101267.75;;;13.03;100.00
61014;BME280;46899;47.542;19.082;2022-10-30T07:59:40;101265.03;;;13.08;100.00
61014;BME280;46899;47.542;19.082;2022-10-30T08:02:49;101274.66;;;13.07;100.00
61014;BME280;46899;47.542;19.082;2022-10-30T08:05:52;101266.66;;;13.12;100.00
61014;BME280;46899;47.542;19.082;2022-10-30T08:08:55;101268.13;;;13.20;100.00
61014;BME280;46899;47.542;19.082;2022-10-30T08:11:58;101259.56;;;13.15;100.00
61014;BME280;46899;47.542;19.082;2022-10-30T08:15:00;101272.50;;;12.90;100.00
61014;BME280;46899;47.542;19.082;2022-10-30T08:18:03;101262.19;;;13.15;100.00
61014;BME280;46899;47.542;19.082;2022-10-30T08:21:06;101263.03;;;13.16;100.00
61014;BME280;46899;47.542;19.082;2022-10-30T08:24:09;101273.22;;;13.25;100.00
61014;BME280;46899;47.542;19.082;2022-10-30T08:27:12;101269.72;;;13.26;100.00
61014;BME280;46899;47.542;19.082;2022-10-30T08:30:14;101271.81;;;13.41;100.00
61014;BME280;46899;47.542;19.082;2022-10-30T08:33:17;101272.59;;;13.44;100.00
61014;BME280;46899;47.542;19.082;2022-10-30T08:36:22;101276.31;;;13.37;100.00
61014;BME280;46899;47.542;19.082;2022-10-30T08:39:24;101271.91;;;13.38;100.00
61014;BME280;46899;47.542;19.082;2022-10-30T08:42:27;101269.22;;;13.41;100.00
61014;BME280;46899;47.542;19.082;2022-10-30T08:45:31;101270.69;;;13.49;100.00
61014;BME280;46899;47.542;19.082;2022-10-30T08:48:33;101275.47;;;13.63;100.00
61014;BME280;46899;47.542;19.082;2022-10-30T08:51:37;101264.84;;;13.67;100.00
61014;BME280;46899;47.542;19.082;2022-10-30T08:54:40;101269.22;;;13.67;100.00
61014;BME280;46899;47.542;19.082;2022-10-30T08:57:42;101262.00;;;13.75;100.00
61014;BME280;46899;47.542;19.082;2022-10-30T09:00:45;101274.00;;;13.81;100.00
61014;BME280;46899;47.542;19.082;2022-10-30T09:03:54;101271.37;;;13.81;100.00
61014;BME280;46899;47.542;19.082;2022-10-30T09:07:00;101264.84;;;13.67;100.00
61014;BME280;46899;47.542;19.082;2022-10-30T09:10:04;101265.66;;;13.69;100.00
61014;BME280;46899;47.542;19.082;2022-10-30T09:13:07;101260.87;;;13.82;100.00
61014;BME280;46899;47.542;19.082;2022-10-30T09:16:10;101259.22;;;13.80;100.00
61014;BME280;46899;47.542;19.082;2022-10-30T09:19:12;101269.44;;;13.87;100.00
61014;BME280;46899;47.542;19.082;2022-10-30T09:22:20;101269.44;;;14.12;100.00
61014;BME280;46899;47.542;19.082;2022-10-30T09:25:23;101274.97;;;14.27;100.00
61014;BME280;46899;47.542;19.082;2022-10-30T09:28:25;101272.31;;;14.04;100.00
61014;BME280;46899;47.542;19.082;2022-10-30T09:31:30;101266.91;;;14.09;100.00
61014;BME280;46899;47.542;19.082;2022-10-30T09:34:33;101268.84;;;14.28;100.00
61014;BME280;46899;47.542;19.082;2022-10-30T09:37:37;101268.03;;;14.26;100.00
61014;BME280;46899;47.542;19.082;2022-10-30T09:46:55;101267.25;;;14.49;100.00
61014;BME280;46899;47.542;19.082;2022-10-30T09:50:14;101266.09;;;14.56;100.00
61014;BME280;46899;47.542;19.082;2022-10-30T10:05:55;101247.44;;;15.32;100.00
61014;BME280;46899;47.542;19.082;2022-10-30T10:09:05;101249.34;;;15.50;100.00
61014;BME280;46899;47.542;19.082;2022-10-30T10:12:12;101255.72;;;15.43;99.86
61014;BME280;46899;47.542;19.082;2022-10-30T10:18:24;101241.72;;;15.86;97.46
61014;BME280;46899;47.542;19.082;2022-10-30T10:21:27;101242.69;;;16.23;95.08
61014;BME280;46899;47.542;19.082;2022-10-30T10:33:50;101232.53;;;16.16;94.74
61014;BME280;46899;47.542;19.082;2022-10-30T10:52:24;101226.53;;;16.53;91.15
61014;BME280;46899;47.542;19.082;2022-10-30T10:55:27;101221.34;;;16.51;91.64
61014;BME280;46899;47.542;19.082;2022-10-30T10:58:33;101213.69;;;16.84;90.03
61014;BME280;46899;47.542;19.082;2022-10-30T11:01:38;101207.28;;;16.71;89.28
61014;BME280;46899;47.542;19.082;2022-10-30T11:04:45;101198.53;;;16.89;89.81
61014;BME280;46899;47.542;19.082;2022-10-30T11:07:49;101203.41;;;17.15;87.43
61014;BME280;46899;47.542;19.082;2022-10-30T11:10:58;101204.47;;;17.11;86.04
61014;BME280;46899;47.542;19.082;2022-10-30T11:14:04;101204.41;;;16.77;89.16
61014;BME280;46899;47.542;19.082;2022-10-30T11:20:20;101203.37;;;16.61;90.19
61014;BME280;46899;47.542;19.082;2022-10-30T11:26:33;101195.56;;;16.59;90.49
61014;BME280;46899;47.542;19.082;2022-10-30T11:29:35;101193.06;;;16.75;89.99
61014;BME280;46899;47.542;19.082;2022-10-30T11:32:38;101199.28;;;16.74;89.17
61014;BME280;46899;47.542;19.082;2022-10-30T11:35:40;101192.59;;;16.67;89.81
61014;BME280;46899;47.542;19.082;2022-10-30T11:38:43;101193.59;;;16.44;90.69
61014;BME280;46899;47.542;19.082;2022-10-30T11:41:47;101189.84;;;16.31;92.63
61014;BME280;46899;47.542;19.082;2022-10-30T11:44:56;101187.22;;;16.70;91.70
61014;BME280;46899;47.542;19.082;2022-10-30T11:47:59;101176.06;;;17.00;89.89
61014;BME280;46899;47.542;19.082;2022-10-30T11:51:05;101183.13;;;17.00;89.72
61014;BME280;46899;47.542;19.082;2022-10-30T11:54:14;101183.25;;;16.97;88.72
61014;BME280;46899;47.542;19.082;2022-10-30T11:57:20;101174.97;;;16.87;89.38
61014;BME280;46899;47.542;19.082;2022-10-30T12:00:27;101178.91;;;16.40;91.87
61014;BME280;46899;47.542;19.082;2022-10-30T12:03:39;101169.37;;;16.58;92.16
61014;BME280;46899;47.542;19.082;2022-10-30T12:06:42;101172.84;;;16.77;91.06
61014;BME280;46899;47.542;19.082;2022-10-30T12:09:45;101168.59;;;16.74;90.76
61014;BME280;46899;47.542;19.082;2022-10-30T12:12:49;101164.88;;;16.41;92.26
61014;BME280;46899;47.542;19.082;2022-10-30T12:16:14;101171.88;;;16.40;92.85
61014;BME280;46899;47.542;19.082;2022-10-30T12:19:15;101171.41;;;16.51;91.92
61014;BME280;46899;47.542;19.082;2022-10-30T12:22:31;101165.97;;;16.56;91.62
61014;BME280;46899;47.542;19.082;2022-10-30T12:25:34;101163.19;;;16.59;92.02
61014;BME280;46899;47.542;19.082;2022-10-30T12:28:37;101157.06;;;16.58;92.01
61014;BME280;46899;47.542;19.082;2022-10-30T12:34:55;101149.72;;;16.27;93.18
61014;BME280;46899;47.542;19.082;2022-10-30T12:38:01;101144.84;;;16.38;93.49
61014;BME280;46899;47.542;19.082;2022-10-30T12:44:21;101164.66;;;16.46;93.03
61014;BME280;46899;47.542;19.082;2022-10-30T12:47:42;101171.81;;;16.42;92.90
61014;BME280;46899;47.542;19.082;2022-10-30T12:50:51;101168.84;;;16.50;93.34
61014;BME280;46899;47.542;19.082;2022-10-30T12:57:22;101162.84;;;16.27;94.73
61014;BME280;46899;47.542;19.082;2022-10-30T13:00:27;101166.00;;;16.35;94.68
61014;BME280;46899;47.542;19.082;2022-10-30T13:03:50;101159.31;;;16.28;94.68
61014;BME280;46899;47.542;19.082;2022-10-30T13:06:57;101161.25;;;16.05;96.35
61014;BME280;46899;47.542;19.082;2022-10-30T13:13:26;101147.84;;;15.72;99.22
61014;BME280;46899;47.542;19.082;2022-10-30T13:16:31;101153.94;;;15.52;100.00
61014;BME280;46899;47.542;19.082;2022-10-30T13:19:33;101159.13;;;15.54;100.00
61014;BME280;46899;47.542;19.082;2022-10-30T13:25:56;101157.91;;;15.41;100.00
61014;BME280;46899;47.542;19.082;2022-10-30T13:29:11;101148.47;;;15.37;100.00
61014;BME280;46899;47.542;19.082;2022-10-30T13:41:31;101165.84;;;15.61;100.00
61014;BME280;46899;47.542;19.082;2022-10-30T13:47:54;101158.34;;;15.72;100.00
61014;BME280;46899;47.542;19.082;2022-10-30T13:51:15;101153.75;;;15.57;100.00
61014;BME280;46899;47.542;19.082;2022-10-30T13:54:23;101154.63;;;15.36;100.00
61014;BME280;46899;47.542;19.082;2022-10-30T13:57:36;101153.31;;;15.26;100.00
61014;BME280;46899;47.542;19.082;2022-10-30T14:10:14;101154.19;;;14.83;100.00
61014;BME280;46899;47.542;19.082;2022-10-30T14:13:28;101151.50;;;14.84;100.00
61014;BME280;46899;47.542;19.082;2022-10-30T14:19:33;101163.44;;;14.91;100.00
61014;BME280;46899;47.542;19.082;2022-10-30T14:23:05;101162.22;;;14.78;100.00
61014;BME280;46899;47.542;19.082;2022-10-30T14:29:53;101161.88;;;14.87;100.00
61014;BME280;46899;47.542;19.082;2022-10-30T14:32:37;101163.59;;;14.88;100.00
61014;BME280;46899;47.542;19.082;2022-10-30T14:35:40;101157.41;;;14.89;100.00
61014;BME280;46899;47.542;19.082;2022-10-30T14:38:52;101158.34;;;14.88;100.00
61014;BME280;46899;47.542;19.082;2022-10-30T14:42:56;101156.63;;;14.87;100.00
61014;BME280;46899;47.542;19.082;2022-10-30T14:45:37;101146.69;;;14.95;100.00
61014;BME280;46899;47.542;19.082;2022-10-30T14:48:44;101145.53;;;15.02;100.00
61014;BME280;46899;47.542;19.082;2022-10-30T14:58:35;101140.59;;;14.95;100.00
61014;BME280;46899;47.542;19.082;2022-10-30T15:08:43;101134.69;;;14.68;100.00
61014;BME280;46899;47.542;19.082;2022-10-30T15:11:26;101128.22;;;14.55;100.00
61014;BME280;46899;47.542;19.082;2022-10-30T15:14:36;101126.97;;;14.42;100.00
61014;BME280;46899;47.542;19.082;2022-10-30T15:17:56;101126.47;;;14.32;100.00
61014;BME280;46899;47.542;19.082;2022-10-30T15:21:04;101132.66;;;14.30;100.00
61014;BME280;46899;47.542;19.082;2022-10-30T15:24:10;101126.88;;;14.20;100.00
61014;BME280;46899;47.542;19.082;2022-10-30T15:27:16;101135.06;;;14.13;100.00
61014;BME280;46899;47.542;19.082;2022-10-30T15:30:23;101134.53;;;14.03;100.00
61014;BME280;46899;47.542;19.082;2022-10-30T15:33:27;101137.44;;;13.96;100.00
61014;BME280;46899;47.542;19.082;2022-10-30T15:36:39;101145.22;;;13.97;100.00
61014;BME280;46899;47.542;19.082;2022-10-30T15:39:42;101139.00;;;14.00;100.00
61014;BME280;46899;47.542;19.082;2022-10-30T15:42:45;101136.50;;;13.97;100.00
61014;BME280;46899;47.542;19.082;2022-10-30T15:45:49;101140.91;;;13.96;100.00
61014;BME280;46899;47.542;19.082;2022-10-30T15:48:53;101138.81;;;14.06;100.00
61014;BME280;46899;47.542;19.082;2022-10-30T15:51:56;101142.31;;;14.05;100.00
61014;BME280;46899;47.542;19.082;2022-10-30T15:55:12;101143.72;;;13.90;100.00
61014;BME280;46899;47.542;19.082;2022-10-30T15:58:17;101146.97;;;13.97;100.00
61014;BME280;46899;47.542;19.082;2022-10-30T16:01:23;101145.97;;;14.01;100.00
61014;BME280;46899;47.542;19.082;2022-10-30T16:04:30;101140.31;;;13.88;100.00
61014;BME280;46899;47.542;19.082;2022-10-30T16:07:46;101142.66;;;13.71;100.00
61014;BME280;46899;47.542;19.082;2022-10-30T16:10:52;101156.69;;;13.68;100.00
61014;BME280;46899;47.542;19.082;2022-10-30T16:13:56;101156.69;;;13.68;100.00
61014;BME280;46899;47.542;19.082;2022-10-30T16:16:59;101151.63;;;13.64;100.00
61014;BME280;46899;47.542;19.082;2022-10-30T16:20:02;101159.75;;;13.56;100.00
61014;BME280;46899;47.542;19.082;2022-10-30T16:23:06;101155.66;;;13.49;100.00
61014;BME280;46899;47.542;19.082;2022-10-30T16:26:19;101148.59;;;13.51;100.00
61014;BME280;46899;47.542;19.082;2022-10-30T16:29:25;101154.94;;;13.44;100.00
61014;BME280;46899;47.542;19.082;2022-10-30T16:32:29;101157.41;;;13.49;100.00
61014;BME280;46899;47.542;19.082;2022-10-30T16:35:33;101155.97;;;13.65;100.00
61014;BME280;46899;47.542;19.082;2022-10-30T16:38:37;101153.25;;;13.68;100.00
61014;BME280;46899;47.542;19.082;2022-10-30T16:41:40;101160.81;;;13.51;100.00
61014;BME280;46899;47.542;19.082;2022-10-30T16:44:43;101153.94;;;13.48;100.00
61014;BME280;46899;47.542;19.082;2022-10-30T16:47:51;101154.72;;;13.50;100.00
61014;BME280;46899;47.542;19.082;2022-10-30T16:50:58;101151.63;;;13.39;100.00
61014;BME280;46899;47.542;19.082;2022-10-30T16:54:02;101148.25;;;13.36;100.00
61014;BME280;46899;47.542;19.082;2022-10-30T16:57:14;101155.19;;;13.37;100.00
61014;BME280;46899;47.542;19.082;2022-10-30T17:00:21;101155.84;;;13.43;100.00
61014;BME280;46899;47.542;19.082;2022-10-30T17:03:32;101156.31;;;13.54;100.00
61014;BME280;46899;47.542;19.082;2022-10-30T17:09:42;101157.03;;;13.33;100.00
61014;BME280;46899;47.542;19.082;2022-10-30T17:12:44;101157.09;;;13.32;100.00
61014;BME280;46899;47.542;19.082;2022-10-30T17:15:47;101154.66;;;13.27;100.00
61014;BME280;46899;47.542;19.082;2022-10-30T17:18:51;101154.44;;;13.33;100.00
61014;BME280;46899;47.542;19.082;2022-10-30T17:21:53;101162.59;;;13.24;100.00
61014;BME280;46899;47.542;19.082;2022-10-30T17:24:58;101153.94;;;13.22;100.00
61014;BME280;46899;47.542;19.082;2022-10-30T17:28:01;101167.72;;;13.27;100.00
61014;BME280;46899;47.542;19.082;2022-10-30T17:34:20;101172.87;;;13.29;100.00
61014;BME280;46899;47.542;19.082;2022-10-30T17:37:23;101169.53;;;13.25;100.00
61014;BME280;46899;47.542;19.082;2022-10-30T17:40:25;101168.75;;;13.22;100.00
61014;BME280;46899;47.542;19.082;2022-10-30T17:43:32;101165.91;;;13.29;100.00
61014;BME280;46899;47.542;19.082;2022-10-30T17:46:36;101171.53;;;13.17;100.00
61014;BME280;46899;47.542;19.082;2022-10-30T17:49:39;101175.84;;;13.18;100.00
61014;BME280;46899;47.542;19.082;2022-10-30T17:52:42;101186.06;;;13.26;100.00
61014;BME280;46899;47.542;19.082;2022-10-30T17:55:45;101187.19;;;13.17;100.00
61014;BME280;46899;47.542;19.082;2022-10-30T17:58:53;101194.00;;;13.23;100.00
61014;BME280;46899;47.542;19.082;2022-10-30T18:01:56;101187.84;;;13.24;100.00
61014;BME280;46899;47.542;19.082;2022-10-30T18:04:59;101179.34;;;13.19;100.00